sensor_id;sensor_type;location;lat;lon;timestamp;temperature;humidity
54202;DHT22;40108;53.152;5.844;2023-09-19T00:01:08;13.70;91.30
54202;DHT22;40108;53.152;5.844;2023-09-19T00:03:38;13.70;91.30
54202;DHT22;40108;53.152;5.844;2023-09-19T00:06:05;13.70;91.30
54202;DHT22;40108;53.152;5.844;2023-09-19T00:08:33;13.70;91.40
54202;DHT22;40108;53.152;5.844;2023-09-19T00:10:58;13.70;91.50
54202;DHT22;40108;53.152;5.844;2023-09-19T00:13:29;13.70;91.70
54202;DHT22;40108;53.152;5.844;2023-09-19T00:15:56;13.80;91.90
54202;DHT22;40108;53.152;5.844;2023-09-19T00:18:24;13.80;91.90
54202;DHT22;40108;53.152;5.844;2023-09-19T00:20:57;13.80;91.90
54202;DHT22;40108;53.152;5.844;2023-09-19T00:23:23;13.80;91.70
54202;DHT22;40108;53.152;5.844;2023-09-19T00:25:50;13.80;91.00
54202;DHT22;40108;53.152;5.844;2023-09-19T00:28:16;13.80;90.70
54202;DHT22;40108;53.152;5.844;2023-09-19T00:30:43;13.80;90.20
54202;DHT22;40108;53.152;5.844;2023-09-19T00:33:09;13.80;89.80
54202;DHT22;40108;53.152;5.844;2023-09-19T00:35:37;13.80;89.30
54202;DHT22;40108;53.152;5.844;2023-09-19T00:38:02;13.70;89.10
54202;DHT22;40108;53.152;5.844;2023-09-19T00:40:29;13.70;88.60
54202;DHT22;40108;53.152;5.844;2023-09-19T00:42:58;13.60;88.20
54202;DHT22;40108;53.152;5.844;2023-09-19T00:45:25;13.60;88.10
54202;DHT22;40108;53.152;5.844;2023-09-19T00:47:51;13.60;88.00
54202;DHT22;40108;53.152;5.844;2023-09-19T00:50:18;13.50;87.70
54202;DHT22;40108;53.152;5.844;2023-09-19T00:52:46;13.40;87.10
54202;DHT22;40108;53.152;5.844;2023-09-19T00:55:14;13.40;87.00
54202;DHT22;40108;53.152;5.844;2023-09-19T00:57:41;13.30;86.60
54202;DHT22;40108;53.152;5.844;2023-09-19T01:00:10;13.20;86.40
54202;DHT22;40108;53.152;5.844;2023-09-19T01:02:44;13.20;86.10
54202;DHT22;40108;53.152;5.844;2023-09-19T01:05:10;13.20;85.70
54202;DHT22;40108;53.152;5.844;2023-09-19T01:07:38;13.10;86.00
54202;DHT22;40108;53.152;5.844;2023-09-19T01:10:08;13.10;85.90
54202;DHT22;40108;53.152;5.844;2023-09-19T01:18:18;12.80;87.10
54202;DHT22;40108;53.152;5.844;2023-09-19T01:21:08;12.70;87.40
54202;DHT22;40108;53.152;5.844;2023-09-19T01:27:03;12.80;87.80
54202;DHT22;40108;53.152;5.844;2023-09-19T01:32:08;12.90;88.30
54202;DHT22;40108;53.152;5.844;2023-09-19T01:34:53;13.00;88.50
54202;DHT22;40108;53.152;5.844;2023-09-19T01:37:21;13.00;88.70
54202;DHT22;40108;53.152;5.844;2023-09-19T01:39:58;13.10;88.90
54202;DHT22;40108;53.152;5.844;2023-09-19T01:48:23;13.10;88.60
54202;DHT22;40108;53.152;5.844;2023-09-19T01:51:03;13.20;88.50
54202;DHT22;40108;53.152;5.844;2023-09-19T01:53:41;13.20;88.20
54202;DHT22;40108;53.152;5.844;2023-09-19T01:56:12;13.20;88.10
54202;DHT22;40108;53.152;5.844;2023-09-19T01:58:49;13.20;88.00
54202;DHT22;40108;53.152;5.844;2023-09-19T02:01:20;13.20;87.90
54202;DHT22;40108;53.152;5.844;2023-09-19T02:03:50;13.20;87.80
54202;DHT22;40108;53.152;5.844;2023-09-19T02:06:17;13.20;87.80
54202;DHT22;40108;53.152;5.844;2023-09-19T02:08:45;13.30;88.00
54202;DHT22;40108;53.152;5.844;2023-09-19T02:11:13;13.20;88.10
54202;DHT22;40108;53.152;5.844;2023-09-19T02:13:39;13.30;87.70
54202;DHT22;40108;53.152;5.844;2023-09-19T02:16:06;13.30;87.60
54202;DHT22;40108;53.152;5.844;2023-09-19T02:18:32;13.30;87.50
54202;DHT22;40108;53.152;5.844;2023-09-19T02:21:01;13.30;87.50
54202;DHT22;40108;53.152;5.844;2023-09-19T02:23:27;13.40;87.50
54202;DHT22;40108;53.152;5.844;2023-09-19T02:25:53;13.40;87.40
54202;DHT22;40108;53.152;5.844;2023-09-19T02:28:19;13.40;87.20
54202;DHT22;40108;53.152;5.844;2023-09-19T02:30:48;13.40;86.80
54202;DHT22;40108;53.152;5.844;2023-09-19T02:33:14;13.50;86.70
54202;DHT22;40108;53.152;5.844;2023-09-19T02:35:40;13.50;86.70
54202;DHT22;40108;53.152;5.844;2023-09-19T02:38:06;13.60;86.90
54202;DHT22;40108;53.152;5.844;2023-09-19T02:40:37;13.60;86.50
54202;DHT22;40108;53.152;5.844;2023-09-19T02:43:03;13.60;86.50
54202;DHT22;40108;53.152;5.844;2023-09-19T02:45:30;13.60;86.00
54202;DHT22;40108;53.152;5.844;2023-09-19T02:47:56;13.70;86.00
54202;DHT22;40108;53.152;5.844;2023-09-19T02:50:22;13.70;86.20
54202;DHT22;40108;53.152;5.844;2023-09-19T02:52:48;13.70;86.40
54202;DHT22;40108;53.152;5.844;2023-09-19T02:55:16;13.70;86.70
54202;DHT22;40108;53.152;5.844;2023-09-19T02:57:51;13.70;86.80
54202;DHT22;40108;53.152;5.844;2023-09-19T03:00:19;13.70;87.00
54202;DHT22;40108;53.152;5.844;2023-09-19T03:02:54;13.70;87.10
54202;DHT22;40108;53.152;5.844;2023-09-19T03:05:21;13.60;87.10
54202;DHT22;40108;53.152;5.844;2023-09-19T03:07:48;13.60;86.90
54202;DHT22;40108;53.152;5.844;2023-09-19T03:10:20;13.60;86.80
54202;DHT22;40108;53.152;5.844;2023-09-19T03:12:50;13.60;86.80
54202;DHT22;40108;53.152;5.844;2023-09-19T03:15:15;13.50;86.80
54202;DHT22;40108;53.152;5.844;2023-09-19T03:17:46;13.40;86.90
54202;DHT22;40108;53.152;5.844;2023-09-19T03:20:13;13.40;86.80
54202;DHT22;40108;53.152;5.844;2023-09-19T03:22:39;13.30;86.80
54202;DHT22;40108;53.152;5.844;2023-09-19T03:25:06;13.20;86.60
54202;DHT22;40108;53.152;5.844;2023-09-19T03:27:36;13.20;86.80
54202;DHT22;40108;53.152;5.844;2023-09-19T03:30:03;13.20;86.60
54202;DHT22;40108;53.152;5.844;2023-09-19T03:32:37;13.20;86.50
54202;DHT22;40108;53.152;5.844;2023-09-19T03:35:08;13.20;86.60
54202;DHT22;40108;53.152;5.844;2023-09-19T03:37:34;13.20;86.70
54202;DHT22;40108;53.152;5.844;2023-09-19T03:40:00;13.20;86.80
54202;DHT22;40108;53.152;5.844;2023-09-19T03:42:30;13.20;86.80
54202;DHT22;40108;53.152;5.844;2023-09-19T03:44:56;13.20;87.00
54202;DHT22;40108;53.152;5.844;2023-09-19T03:47:22;13.30;87.10
54202;DHT22;40108;53.152;5.844;2023-09-19T03:49:48;13.40;87.10
54202;DHT22;40108;53.152;5.844;2023-09-19T03:52:14;13.40;87.20
54202;DHT22;40108;53.152;5.844;2023-09-19T03:54:41;13.40;87.40
54202;DHT22;40108;53.152;5.844;2023-09-19T03:57:08;13.40;87.50
54202;DHT22;40108;53.152;5.844;2023-09-19T03:59:33;13.40;87.60
54202;DHT22;40108;53.152;5.844;2023-09-19T04:02:01;13.40;87.70
54202;DHT22;40108;53.152;5.844;2023-09-19T04:04:27;13.40;87.80
54202;DHT22;40108;53.152;5.844;2023-09-19T04:06:54;13.40;87.80
54202;DHT22;40108;53.152;5.844;2023-09-19T04:09:20;13.40;87.90
54202;DHT22;40108;53.152;5.844;2023-09-19T04:11:46;13.50;88.00
54202;DHT22;40108;53.152;5.844;2023-09-19T04:14:11;13.60;88.10
54202;DHT22;40108;53.152;5.844;2023-09-19T04:16:37;13.60;88.20
54202;DHT22;40108;53.152;5.844;2023-09-19T04:19:04;13.60;88.20
54202;DHT22;40108;53.152;5.844;2023-09-19T04:21:30;13.60;88.30
54202;DHT22;40108;53.152;5.844;2023-09-19T04:23:56;13.60;88.10
54202;DHT22;40108;53.152;5.844;2023-09-19T04:26:22;13.60;88.00
54202;DHT22;40108;53.152;5.844;2023-09-19T04:28:47;13.60;88.00
54202;DHT22;40108;53.152;5.844;2023-09-19T04:31:13;13.60;87.70
54202;DHT22;40108;53.152;5.844;2023-09-19T04:33:39;13.70;87.60
54202;DHT22;40108;53.152;5.844;2023-09-19T04:36:05;13.70;87.60
54202;DHT22;40108;53.152;5.844;2023-09-19T04:38:33;13.70;87.50
54202;DHT22;40108;53.152;5.844;2023-09-19T04:40:59;13.70;87.30
54202;DHT22;40108;53.152;5.844;2023-09-19T04:43:25;13.70;87.20
54202;DHT22;40108;53.152;5.844;2023-09-19T04:45:51;13.70;87.00
54202;DHT22;40108;53.152;5.844;2023-09-19T04:48:23;13.70;86.90
54202;DHT22;40108;53.152;5.844;2023-09-19T04:50:50;13.80;86.60
54202;DHT22;40108;53.152;5.844;2023-09-19T04:53:17;13.70;85.70
54202;DHT22;40108;53.152;5.844;2023-09-19T04:55:50;13.80;85.30
54202;DHT22;40108;53.152;5.844;2023-09-19T04:58:16;13.80;84.40
54202;DHT22;40108;53.152;5.844;2023-09-19T05:00:43;13.80;84.40
54202;DHT22;40108;53.152;5.844;2023-09-19T05:03:08;13.90;84.10
54202;DHT22;40108;53.152;5.844;2023-09-19T05:05:34;13.90;83.70
54202;DHT22;40108;53.152;5.844;2023-09-19T05:08:00;13.90;83.50
54202;DHT22;40108;53.152;5.844;2023-09-19T05:10:26;13.90;83.20
54202;DHT22;40108;53.152;5.844;2023-09-19T05:12:54;14.00;83.10
54202;DHT22;40108;53.152;5.844;2023-09-19T05:15:20;14.00;83.30
54202;DHT22;40108;53.152;5.844;2023-09-19T05:17:52;14.00;83.30
54202;DHT22;40108;53.152;5.844;2023-09-19T05:20:20;14.00;83.50
54202;DHT22;40108;53.152;5.844;2023-09-19T05:23:04;14.10;83.40
54202;DHT22;40108;53.152;5.844;2023-09-19T05:25:33;14.10;83.70
54202;DHT22;40108;53.152;5.844;2023-09-19T05:28:03;14.10;83.60
54202;DHT22;40108;53.152;5.844;2023-09-19T05:30:29;14.10;83.80
54202;DHT22;40108;53.152;5.844;2023-09-19T05:32:55;14.10;83.80
54202;DHT22;40108;53.152;5.844;2023-09-19T05:35:22;14.10;83.80
54202;DHT22;40108;53.152;5.844;2023-09-19T05:37:50;14.10;84.00
54202;DHT22;40108;53.152;5.844;2023-09-19T05:40:17;14.10;84.30
54202;DHT22;40108;53.152;5.844;2023-09-19T05:42:43;14.10;84.20
54202;DHT22;40108;53.152;5.844;2023-09-19T05:45:10;14.10;84.40
54202;DHT22;40108;53.152;5.844;2023-09-19T05:47:38;14.20;84.30
54202;DHT22;40108;53.152;5.844;2023-09-19T05:50:06;14.20;84.20
54202;DHT22;40108;53.152;5.844;2023-09-19T05:52:35;14.20;84.30
54202;DHT22;40108;53.152;5.844;2023-09-19T05:55:04;14.20;84.30
54202;DHT22;40108;53.152;5.844;2023-09-19T05:57:30;14.20;84.30
54202;DHT22;40108;53.152;5.844;2023-09-19T05:59:56;14.20;84.20
54202;DHT22;40108;53.152;5.844;2023-09-19T06:02:22;14.20;84.40
54202;DHT22;40108;53.152;5.844;2023-09-19T06:04:47;14.20;84.40
54202;DHT22;40108;53.152;5.844;2023-09-19T06:07:13;14.30;84.40
54202;DHT22;40108;53.152;5.844;2023-09-19T06:09:40;14.20;84.10
54202;DHT22;40108;53.152;5.844;2023-09-19T06:12:06;14.30;84.40
54202;DHT22;40108;53.152;5.844;2023-09-19T06:14:32;14.30;84.30
54202;DHT22;40108;53.152;5.844;2023-09-19T06:16:57;14.30;84.30
54202;DHT22;40108;53.152;5.844;2023-09-19T06:19:23;14.30;84.00
54202;DHT22;40108;53.152;5.844;2023-09-19T06:21:52;14.30;84.10
54202;DHT22;40108;53.152;5.844;2023-09-19T06:24:19;14.30;84.30
54202;DHT22;40108;53.152;5.844;2023-09-19T06:26:46;14.30;84.30
54202;DHT22;40108;53.152;5.844;2023-09-19T06:29:13;14.30;84.20
54202;DHT22;40108;53.152;5.844;2023-09-19T06:31:39;14.40;84.00
54202;DHT22;40108;53.152;5.844;2023-09-19T06:34:05;14.40;84.00
54202;DHT22;40108;53.152;5.844;2023-09-19T06:36:32;14.40;83.80
54202;DHT22;40108;53.152;5.844;2023-09-19T06:38:58;14.50;83.20
54202;DHT22;40108;53.152;5.844;2023-09-19T06:41:24;14.60;83.40
54202;DHT22;40108;53.152;5.844;2023-09-19T06:43:50;14.60;83.30
54202;DHT22;40108;53.152;5.844;2023-09-19T06:46:19;14.70;83.00
54202;DHT22;40108;53.152;5.844;2023-09-19T06:48:44;14.70;83.20
54202;DHT22;40108;53.152;5.844;2023-09-19T06:51:13;14.70;83.20
54202;DHT22;40108;53.152;5.844;2023-09-19T06:53:42;14.70;82.60
54202;DHT22;40108;53.152;5.844;2023-09-19T06:56:07;14.90;82.50
54202;DHT22;40108;53.152;5.844;2023-09-19T06:58:33;14.90;82.20
54202;DHT22;40108;53.152;5.844;2023-09-19T07:01:00;15.00;82.10
54202;DHT22;40108;53.152;5.844;2023-09-19T07:03:26;15.00;82.30
54202;DHT22;40108;53.152;5.844;2023-09-19T07:05:54;15.10;82.50
54202;DHT22;40108;53.152;5.844;2023-09-19T07:08:21;15.10;82.50
54202;DHT22;40108;53.152;5.844;2023-09-19T07:10:47;15.20;82.20
54202;DHT22;40108;53.152;5.844;2023-09-19T07:13:19;15.20;81.60
54202;DHT22;40108;53.152;5.844;2023-09-19T07:15:45;15.30;81.50
54202;DHT22;40108;53.152;5.844;2023-09-19T07:18:16;15.20;80.80
54202;DHT22;40108;53.152;5.844;2023-09-19T07:20:43;15.30;80.80
54202;DHT22;40108;53.152;5.844;2023-09-19T07:23:15;15.30;80.00
54202;DHT22;40108;53.152;5.844;2023-09-19T07:25:41;15.30;80.50
54202;DHT22;40108;53.152;5.844;2023-09-19T07:28:07;15.40;80.30
54202;DHT22;40108;53.152;5.844;2023-09-19T07:30:36;15.40;80.10
54202;DHT22;40108;53.152;5.844;2023-09-19T07:33:03;15.60;80.60
54202;DHT22;40108;53.152;5.844;2023-09-19T07:35:30;15.70;80.30
54202;DHT22;40108;53.152;5.844;2023-09-19T07:37:57;15.80;80.00
54202;DHT22;40108;53.152;5.844;2023-09-19T07:40:24;16.00;80.00
54202;DHT22;40108;53.152;5.844;2023-09-19T07:42:52;16.10;79.60
54202;DHT22;40108;53.152;5.844;2023-09-19T07:45:18;16.30;80.20
54202;DHT22;40108;53.152;5.844;2023-09-19T07:47:48;16.60;80.20
54202;DHT22;40108;53.152;5.844;2023-09-19T07:50:15;16.80;78.10
54202;DHT22;40108;53.152;5.844;2023-09-19T07:52:42;17.00;77.70
54202;DHT22;40108;53.152;5.844;2023-09-19T07:55:08;17.10;77.80
54202;DHT22;40108;53.152;5.844;2023-09-19T07:57:37;17.10;76.50
54202;DHT22;40108;53.152;5.844;2023-09-19T08:00:03;17.10;76.20
54202;DHT22;40108;53.152;5.844;2023-09-19T08:02:51;17.10;77.20
54202;DHT22;40108;53.152;5.844;2023-09-19T08:05:18;17.10;76.80
54202;DHT22;40108;53.152;5.844;2023-09-19T08:07:45;17.10;76.70
54202;DHT22;40108;53.152;5.844;2023-09-19T08:10:15;17.10;77.80
54202;DHT22;40108;53.152;5.844;2023-09-19T08:12:42;17.20;77.10
54202;DHT22;40108;53.152;5.844;2023-09-19T08:15:16;17.10;76.90
54202;DHT22;40108;53.152;5.844;2023-09-19T08:17:42;17.20;76.80
54202;DHT22;40108;53.152;5.844;2023-09-19T08:20:09;17.20;77.30
54202;DHT22;40108;53.152;5.844;2023-09-19T08:22:43;17.30;77.20
54202;DHT22;40108;53.152;5.844;2023-09-19T08:25:11;17.30;75.70
54202;DHT22;40108;53.152;5.844;2023-09-19T08:27:37;17.20;76.40
54202;DHT22;40108;53.152;5.844;2023-09-19T08:30:03;17.40;76.20
54202;DHT22;40108;53.152;5.844;2023-09-19T08:32:29;17.60;76.30
54202;DHT22;40108;53.152;5.844;2023-09-19T08:34:55;17.70;74.20
54202;DHT22;40108;53.152;5.844;2023-09-19T08:37:20;17.80;72.50
54202;DHT22;40108;53.152;5.844;2023-09-19T08:39:46;18.00;72.10
54202;DHT22;40108;53.152;5.844;2023-09-19T08:42:13;18.10;72.40
54202;DHT22;40108;53.152;5.844;2023-09-19T08:44:40;18.20;70.20
54202;DHT22;40108;53.152;5.844;2023-09-19T08:47:10;18.40;68.80
54202;DHT22;40108;53.152;5.844;2023-09-19T08:52:46;18.50;68.10
54202;DHT22;40108;53.152;5.844;2023-09-19T08:55:14;18.60;68.90
54202;DHT22;40108;53.152;5.844;2023-09-19T08:57:46;18.60;69.50
54202;DHT22;40108;53.152;5.844;2023-09-19T09:00:15;18.60;69.30
54202;DHT22;40108;53.152;5.844;2023-09-19T09:02:44;18.60;69.10
54202;DHT22;40108;53.152;5.844;2023-09-19T09:05:10;18.70;69.00
54202;DHT22;40108;53.152;5.844;2023-09-19T09:07:41;18.70;68.10
54202;DHT22;40108;53.152;5.844;2023-09-19T09:10:08;18.90;68.80
54202;DHT22;40108;53.152;5.844;2023-09-19T09:12:37;19.00;67.50
54202;DHT22;40108;53.152;5.844;2023-09-19T09:15:05;19.00;66.50
54202;DHT22;40108;53.152;5.844;2023-09-19T09:17:31;19.10;66.10
54202;DHT22;40108;53.152;5.844;2023-09-19T09:19:57;19.20;64.30
54202;DHT22;40108;53.152;5.844;2023-09-19T09:22:22;19.40;66.60
54202;DHT22;40108;53.152;5.844;2023-09-19T09:24:56;19.60;65.90
54202;DHT22;40108;53.152;5.844;2023-09-19T09:27:30;19.60;65.30
54202;DHT22;40108;53.152;5.844;2023-09-19T09:29:58;19.50;65.10
54202;DHT22;40108;53.152;5.844;2023-09-19T09:32:28;19.70;66.40
54202;DHT22;40108;53.152;5.844;2023-09-19T09:35:06;19.70;65.70
54202;DHT22;40108;53.152;5.844;2023-09-19T09:37:35;19.60;65.30
54202;DHT22;40108;53.152;5.844;2023-09-19T09:40:04;19.50;66.60
54202;DHT22;40108;53.152;5.844;2023-09-19T09:42:43;19.20;66.70
54202;DHT22;40108;53.152;5.844;2023-09-19T09:45:13;19.10;68.60
54202;DHT22;40108;53.152;5.844;2023-09-19T09:47:47;19.20;67.90
54202;DHT22;40108;53.152;5.844;2023-09-19T09:50:28;19.10;68.30
54202;DHT22;40108;53.152;5.844;2023-09-19T09:52:59;19.10;68.20
54202;DHT22;40108;53.152;5.844;2023-09-19T09:58:22;19.10;67.00
54202;DHT22;40108;53.152;5.844;2023-09-19T10:00:58;18.90;68.40
54202;DHT22;40108;53.152;5.844;2023-09-19T10:03:32;18.60;68.40
54202;DHT22;40108;53.152;5.844;2023-09-19T10:06:06;18.50;70.60
54202;DHT22;40108;53.152;5.844;2023-09-19T10:08:34;18.30;75.50
54202;DHT22;40108;53.152;5.844;2023-09-19T10:11:15;18.10;77.30
54202;DHT22;40108;53.152;5.844;2023-09-19T10:13:42;17.90;78.50
54202;DHT22;40108;53.152;5.844;2023-09-19T10:16:10;18.00;78.40
54202;DHT22;40108;53.152;5.844;2023-09-19T10:18:38;18.10;78.50
54202;DHT22;40108;53.152;5.844;2023-09-19T10:21:04;18.00;78.30
54202;DHT22;40108;53.152;5.844;2023-09-19T10:23:33;18.10;78.70
54202;DHT22;40108;53.152;5.844;2023-09-19T10:26:01;18.20;79.30
54202;DHT22;40108;53.152;5.844;2023-09-19T10:28:28;18.40;77.40
54202;DHT22;40108;53.152;5.844;2023-09-19T10:30:56;18.30;77.20
54202;DHT22;40108;53.152;5.844;2023-09-19T10:33:24;18.30;78.20
54202;DHT22;40108;53.152;5.844;2023-09-19T10:35:53;18.30;78.90
54202;DHT22;40108;53.152;5.844;2023-09-19T10:38:25;18.30;78.30
54202;DHT22;40108;53.152;5.844;2023-09-19T10:40:54;18.30;77.80
54202;DHT22;40108;53.152;5.844;2023-09-19T10:43:25;18.10;78.10
54202;DHT22;40108;53.152;5.844;2023-09-19T10:45:51;17.80;79.60
54202;DHT22;40108;53.152;5.844;2023-09-19T10:48:19;17.70;79.70
54202;DHT22;40108;53.152;5.844;2023-09-19T10:53:17;17.60;80.80
54202;DHT22;40108;53.152;5.844;2023-09-19T10:55:59;17.60;80.90
54202;DHT22;40108;53.152;5.844;2023-09-19T10:58:30;17.40;81.30
54202;DHT22;40108;53.152;5.844;2023-09-19T11:01:00;17.40;80.70
54202;DHT22;40108;53.152;5.844;2023-09-19T11:03:32;17.60;82.20
54202;DHT22;40108;53.152;5.844;2023-09-19T11:06:03;18.10;81.30
54202;DHT22;40108;53.152;5.844;2023-09-19T11:09:02;18.40;80.00
54202;DHT22;40108;53.152;5.844;2023-09-19T11:11:48;18.30;78.30
54202;DHT22;40108;53.152;5.844;2023-09-19T11:30:40;17.60;81.90
54202;DHT22;40108;53.152;5.844;2023-09-19T11:36:09;17.60;82.20
54202;DHT22;40108;53.152;5.844;2023-09-19T11:43:51;17.20;84.00
54202;DHT22;40108;53.152;5.844;2023-09-19T11:46:17;17.10;83.80
54202;DHT22;40108;53.152;5.844;2023-09-19T11:48:51;17.00;84.40
54202;DHT22;40108;53.152;5.844;2023-09-19T11:51:21;16.90;87.00
54202;DHT22;40108;53.152;5.844;2023-09-19T11:53:54;16.60;88.90
54202;DHT22;40108;53.152;5.844;2023-09-19T11:56:24;16.40;90.50
54202;DHT22;40108;53.152;5.844;2023-09-19T11:58:53;16.20;91.10
54202;DHT22;40108;53.152;5.844;2023-09-19T12:01:30;16.10;91.90
54202;DHT22;40108;53.152;5.844;2023-09-19T12:03:58;16.00;92.80
54202;DHT22;40108;53.152;5.844;2023-09-19T12:06:29;15.90;93.40
54202;DHT22;40108;53.152;5.844;2023-09-19T12:08:55;15.90;93.80
54202;DHT22;40108;53.152;5.844;2023-09-19T12:11:28;16.10;94.10
54202;DHT22;40108;53.152;5.844;2023-09-19T12:13:55;16.40;94.40
54202;DHT22;40108;53.152;5.844;2023-09-19T12:16:24;16.60;93.80
54202;DHT22;40108;53.152;5.844;2023-09-19T12:18:50;16.60;92.80
54202;DHT22;40108;53.152;5.844;2023-09-19T12:21:31;16.60;91.70
54202;DHT22;40108;53.152;5.844;2023-09-19T12:26:40;16.90;90.80
54202;DHT22;40108;53.152;5.844;2023-09-19T12:29:17;17.00;90.10
54202;DHT22;40108;53.152;5.844;2023-09-19T12:31:57;17.10;89.70
54202;DHT22;40108;53.152;5.844;2023-09-19T12:34:27;17.10;88.20
54202;DHT22;40108;53.152;5.844;2023-09-19T12:37:10;17.20;88.00
54202;DHT22;40108;53.152;5.844;2023-09-19T12:39:46;17.10;87.90
54202;DHT22;40108;53.152;5.844;2023-09-19T12:42:15;17.10;87.70
54202;DHT22;40108;53.152;5.844;2023-09-19T12:44:59;17.10;87.60
54202;DHT22;40108;53.152;5.844;2023-09-19T12:47:27;17.00;87.00
54202;DHT22;40108;53.152;5.844;2023-09-19T12:50:15;17.00;87.90
54202;DHT22;40108;53.152;5.844;2023-09-19T12:52:49;16.80;89.30
54202;DHT22;40108;53.152;5.844;2023-09-19T12:55:22;16.60;90.30
54202;DHT22;40108;53.152;5.844;2023-09-19T13:00:38;16.60;91.50
54202;DHT22;40108;53.152;5.844;2023-09-19T13:08:31;16.80;90.30
54202;DHT22;40108;53.152;5.844;2023-09-19T13:11:18;16.90;89.90
54202;DHT22;40108;53.152;5.844;2023-09-19T13:13:50;16.90;89.50
54202;DHT22;40108;53.152;5.844;2023-09-19T13:16:21;16.90;89.60
54202;DHT22;40108;53.152;5.844;2023-09-19T13:18:53;16.90;89.70
54202;DHT22;40108;53.152;5.844;2023-09-19T13:21:30;16.90;89.20
54202;DHT22;40108;53.152;5.844;2023-09-19T13:24:22;17.10;89.00
54202;DHT22;40108;53.152;5.844;2023-09-19T13:26:49;17.10;89.10
54202;DHT22;40108;53.152;5.844;2023-09-19T13:29:15;17.10;88.90
54202;DHT22;40108;53.152;5.844;2023-09-19T13:31:50;17.20;88.50
54202;DHT22;40108;53.152;5.844;2023-09-19T13:34:19;17.30;88.50
54202;DHT22;40108;53.152;5.844;2023-09-19T13:36:45;17.40;88.80
54202;DHT22;40108;53.152;5.844;2023-09-19T13:39:14;17.50;88.40
54202;DHT22;40108;53.152;5.844;2023-09-19T13:41:47;17.60;88.00
54202;DHT22;40108;53.152;5.844;2023-09-19T13:44:13;17.60;87.30
54202;DHT22;40108;53.152;5.844;2023-09-19T13:46:39;17.60;87.40
54202;DHT22;40108;53.152;5.844;2023-09-19T13:49:06;17.60;87.40
54202;DHT22;40108;53.152;5.844;2023-09-19T13:51:32;17.60;87.50
54202;DHT22;40108;53.152;5.844;2023-09-19T13:53:58;17.60;87.80
54202;DHT22;40108;53.152;5.844;2023-09-19T13:56:25;17.60;87.80
54202;DHT22;40108;53.152;5.844;2023-09-19T13:58:56;17.60;87.80
54202;DHT22;40108;53.152;5.844;2023-09-19T14:01:22;17.60;87.70
54202;DHT22;40108;53.152;5.844;2023-09-19T14:03:48;17.50;88.50
54202;DHT22;40108;53.152;5.844;2023-09-19T14:06:16;17.40;88.80
54202;DHT22;40108;53.152;5.844;2023-09-19T14:08:42;17.20;89.90
54202;DHT22;40108;53.152;5.844;2023-09-19T14:11:08;17.10;90.50
54202;DHT22;40108;53.152;5.844;2023-09-19T14:13:34;17.00;90.80
54202;DHT22;40108;53.152;5.844;2023-09-19T14:16:04;16.90;91.40
54202;DHT22;40108;53.152;5.844;2023-09-19T14:18:31;16.90;91.50
54202;DHT22;40108;53.152;5.844;2023-09-19T14:20:57;16.90;91.20
54202;DHT22;40108;53.152;5.844;2023-09-19T14:23:23;17.00;90.80
54202;DHT22;40108;53.152;5.844;2023-09-19T14:25:50;17.00;90.30
54202;DHT22;40108;53.152;5.844;2023-09-19T14:28:17;17.10;90.20
54202;DHT22;40108;53.152;5.844;2023-09-19T14:30:43;17.10;89.60
54202;DHT22;40108;53.152;5.844;2023-09-19T14:33:09;17.20;89.30
54202;DHT22;40108;53.152;5.844;2023-09-19T14:35:37;17.30;88.90
54202;DHT22;40108;53.152;5.844;2023-09-19T14:38:04;17.40;88.70
54202;DHT22;40108;53.152;5.844;2023-09-19T14:40:29;17.40;88.90
54202;DHT22;40108;53.152;5.844;2023-09-19T14:42:56;17.40;89.00
54202;DHT22;40108;53.152;5.844;2023-09-19T14:45:22;17.20;89.50
54202;DHT22;40108;53.152;5.844;2023-09-19T14:47:50;17.20;89.80
54202;DHT22;40108;53.152;5.844;2023-09-19T14:50:18;17.20;89.50
54202;DHT22;40108;53.152;5.844;2023-09-19T14:52:43;17.20;89.10
54202;DHT22;40108;53.152;5.844;2023-09-19T14:55:09;17.30;88.80
54202;DHT22;40108;53.152;5.844;2023-09-19T14:57:39;17.40;88.30
54202;DHT22;40108;53.152;5.844;2023-09-19T15:00:06;17.40;88.30
54202;DHT22;40108;53.152;5.844;2023-09-19T15:02:38;17.50;88.30
54202;DHT22;40108;53.152;5.844;2023-09-19T15:05:06;17.50;88.30
54202;DHT22;40108;53.152;5.844;2023-09-19T15:07:37;17.60;88.30
54202;DHT22;40108;53.152;5.844;2023-09-19T15:10:04;17.60;87.80
54202;DHT22;40108;53.152;5.844;2023-09-19T15:12:32;17.60;87.70
54202;DHT22;40108;53.152;5.844;2023-09-19T15:14:58;17.60;88.10
54202;DHT22;40108;53.152;5.844;2023-09-19T15:17:24;17.60;88.30
54202;DHT22;40108;53.152;5.844;2023-09-19T15:19:51;17.60;88.30
54202;DHT22;40108;53.152;5.844;2023-09-19T15:22:16;17.60;88.20
54202;DHT22;40108;53.152;5.844;2023-09-19T15:24:42;17.60;88.30
54202;DHT22;40108;53.152;5.844;2023-09-19T15:27:08;17.60;88.40
54202;DHT22;40108;53.152;5.844;2023-09-19T15:29:34;17.60;88.30
54202;DHT22;40108;53.152;5.844;2023-09-19T15:31:59;17.60;88.40
54202;DHT22;40108;53.152;5.844;2023-09-19T15:34:28;17.60;88.70
54202;DHT22;40108;53.152;5.844;2023-09-19T15:36:55;17.60;88.90
54202;DHT22;40108;53.152;5.844;2023-09-19T15:39:20;17.50;89.40
54202;DHT22;40108;53.152;5.844;2023-09-19T15:41:48;17.40;90.00
54202;DHT22;40108;53.152;5.844;2023-09-19T15:44:18;17.20;91.00
54202;DHT22;40108;53.152;5.844;2023-09-19T15:46:44;17.10;91.90
54202;DHT22;40108;53.152;5.844;2023-09-19T15:49:10;17.00;92.60
54202;DHT22;40108;53.152;5.844;2023-09-19T15:51:37;16.90;93.20
54202;DHT22;40108;53.152;5.844;2023-09-19T15:54:29;16.80;93.70
54202;DHT22;40108;53.152;5.844;2023-09-19T15:56:55;16.80;94.10
54202;DHT22;40108;53.152;5.844;2023-09-19T15:59:21;16.70;94.40
54202;DHT22;40108;53.152;5.844;2023-09-19T16:01:46;16.70;94.50
54202;DHT22;40108;53.152;5.844;2023-09-19T16:04:13;16.70;94.60
54202;DHT22;40108;53.152;5.844;2023-09-19T16:06:40;16.60;94.90
54202;DHT22;40108;53.152;5.844;2023-09-19T16:09:06;16.60;94.90
54202;DHT22;40108;53.152;5.844;2023-09-19T16:11:33;16.60;95.20
54202;DHT22;40108;53.152;5.844;2023-09-19T16:13:59;16.50;95.30
54202;DHT22;40108;53.152;5.844;2023-09-19T16:16:27;16.50;95.40
54202;DHT22;40108;53.152;5.844;2023-09-19T16:18:59;16.40;95.50
54202;DHT22;40108;53.152;5.844;2023-09-19T16:21:30;16.40;95.60
54202;DHT22;40108;53.152;5.844;2023-09-19T16:23:57;16.40;95.80
54202;DHT22;40108;53.152;5.844;2023-09-19T16:26:24;16.40;95.90
54202;DHT22;40108;53.152;5.844;2023-09-19T16:28:52;16.30;96.00
54202;DHT22;40108;53.152;5.844;2023-09-19T16:31:18;16.30;96.10
54202;DHT22;40108;53.152;5.844;2023-09-19T16:33:45;16.30;96.20
54202;DHT22;40108;53.152;5.844;2023-09-19T16:36:12;16.30;96.30
54202;DHT22;40108;53.152;5.844;2023-09-19T16:38:39;16.30;96.40
54202;DHT22;40108;53.152;5.844;2023-09-19T16:41:06;16.40;96.40